»·PEaware :: N210AR 2O7-3L2

N210AR :: 2O7-3L2

FLIGHT INFORMATION

Flight Status: Arrived
Operator: Privately registered:
United States
More flights under this callsign
Pilot: Max S. (16657)
Aircraft: CESSNA 172 SKYHAWK
(C172)
More flights by this aircraft type
Origin: 2O7 Independence
United States
Destination: 3L2 Sky Ranch
United States
More flights between these airports :: More routes between these airports
Route:
File this flight plan on PilotEdge
Remarks: ALPHABET CHALLENGE
Altitude:
(Current/Filed)
7,500ft
Speed:
(Current/Filed)
110kts
Departed: 02-Mar-20 09:22 AM
Arrived: 02-Mar-20 10:54 AM
Distance/Time
Traveled:
139nm/1:32
Distance/Time
To Go:
Arrived

Flight Plot

Page will automatically refresh every two minutes.


Map Options




Map Legend


Flown Route
Filed Route
Departure Airport
Arrival Airport
Navaid (VOR, NDB)
Fix

Horizontal Profiles

Position Reports

Time Latitude Longitude Heading Altitude Ground
Speed
02-Mar-20 09:09 36.809850 -118.203166 349 3899ft 0kts
02-Mar-20 09:10 36.809850 -118.203166 349 3899ft 0kts
02-Mar-20 09:11 36.809850 -118.203166 349 3899ft 0kts
02-Mar-20 09:12 36.809883 -118.203174 348 3899ft 0kts
02-Mar-20 09:13 36.809883 -118.203174 348 3899ft 0kts
02-Mar-20 09:14 36.809927 -118.203186 348 3899ft 0kts
02-Mar-20 09:15 36.809927 -118.203186 348 3899ft 0kts
02-Mar-20 09:16 36.809927 -118.203186 348 3899ft 0kts
02-Mar-20 09:17 36.810000 -118.203242 294 3899ft 5kts
02-Mar-20 09:18 36.810325 -118.202418 74 3899ft 0kts
02-Mar-20 09:19 36.810325 -118.202418 74 3899ft 0kts
02-Mar-20 09:20 36.810417 -118.202094 62 3899ft 8kts
02-Mar-20 09:21 36.822539 -118.208431 334 4069ft 81kts
02-Mar-20 09:22 36.840729 -118.220251 266 4764ft 73kts
02-Mar-20 09:23 36.824118 -118.225356 151 5175ft 96kts
02-Mar-20 09:25 36.801472 -118.209470 147 5736ft 92kts
02-Mar-20 09:26 36.781881 -118.190630 137 6319ft 88kts
02-Mar-20 09:27 36.763624 -118.170857 138 6893ft 81kts
02-Mar-20 09:28 36.745000 -118.152329 141 7359ft 88kts
02-Mar-20 09:29 36.723535 -118.128721 135 7411ft 121kts
02-Mar-20 09:30 36.696633 -118.102515 144 7405ft 120kts
02-Mar-20 09:31 36.669517 -118.078421 144 7406ft 119kts
02-Mar-20 09:32 36.643731 -118.052430 142 7406ft 119kts
02-Mar-20 09:33 36.616853 -118.028116 144 7406ft 119kts
02-Mar-20 09:34 36.593000 -117.999552 134 7406ft 119kts
02-Mar-20 09:35 36.570776 -117.968733 131 7406ft 119kts
02-Mar-20 09:36 36.548681 -117.937765 131 7406ft 119kts
02-Mar-20 09:37 36.526612 -117.906897 131 7406ft 119kts
02-Mar-20 09:38 36.500067 -117.879594 132 7495ft 133kts
02-Mar-20 09:39 36.469541 -117.850965 131 7468ft 138kts
02-Mar-20 09:40 36.438757 -117.822214 132 7471ft 138kts
02-Mar-20 09:41 36.408165 -117.793541 131 7470ft 138kts
02-Mar-20 09:42 36.380379 -117.762113 113 7473ft 129kts
02-Mar-20 09:43 36.360843 -117.725324 108 7473ft 127kts
02-Mar-20 09:44 36.343361 -117.687584 101 7474ft 125kts
02-Mar-20 09:44 36.334464 -117.654771 91 7471ft 119kts
02-Mar-20 09:45 36.326125 -117.615619 84 7470ft 114kts
02-Mar-20 09:47 36.319468 -117.569803 85 7471ft 115kts
02-Mar-20 09:47 36.314688 -117.537276 84 7467ft 115kts
02-Mar-20 09:48 36.309037 -117.498384 84 7469ft 114kts
02-Mar-20 09:50 36.302510 -117.452708 85 7473ft 114kts
02-Mar-20 09:50 36.294913 -117.420273 102 7474ft 124kts
02-Mar-20 09:51 36.276233 -117.383071 112 7474ft 130kts
02-Mar-20 09:52 36.249534 -117.350827 131 7469ft 138kts
02-Mar-20 09:53 36.214622 -117.327879 144 7471ft 143kts
02-Mar-20 09:54 36.176558 -117.310553 156 7475ft 147kts
02-Mar-20 09:55 36.137768 -117.295499 156 7473ft 145kts
02-Mar-20 09:56 36.098814 -117.280537 155 7477ft 147kts
02-Mar-20 09:57 36.059795 -117.265416 155 7473ft 147kts
02-Mar-20 09:58 36.020778 -117.250474 156 7476ft 147kts
02-Mar-20 09:59 35.981522 -117.235331 155 7475ft 147kts
02-Mar-20 10:00 35.942501 -117.220636 154 7475ft 147kts
02-Mar-20 10:01 35.903932 -117.204573 144 7477ft 143kts
02-Mar-20 10:02 35.869391 -117.181191 132 7466ft 139kts
02-Mar-20 10:03 35.845124 -117.148560 98 7514ft 121kts
02-Mar-20 10:04 35.838329 -117.109668 81 7466ft 113kts
02-Mar-20 10:05 35.835804 -117.071597 78 7455ft 110kts
02-Mar-20 10:06 35.834293 -117.034069 78 7446ft 108kts
02-Mar-20 10:07 35.833063 -116.996808 80 7460ft 109kts
02-Mar-20 10:08 35.831857 -116.959503 82 7451ft 108kts
02-Mar-20 10:09 35.830683 -116.922525 82 7442ft 107kts
02-Mar-20 10:10 35.829515 -116.885778 83 7434ft 107kts
02-Mar-20 10:11 35.828338 -116.849260 83 7432ft 106kts
02-Mar-20 10:12 35.827159 -116.812707 83 7432ft 106kts
02-Mar-20 10:13 35.825971 -116.776192 83 7431ft 106kts
02-Mar-20 10:14 35.824774 -116.739758 83 7431ft 106kts
02-Mar-20 10:15 35.823567 -116.703323 83 7431ft 106kts
02-Mar-20 10:16 35.822344 -116.666746 83 7431ft 106kts
02-Mar-20 10:17 35.821104 -116.630333 83 7431ft 106kts
02-Mar-20 10:18 35.819871 -116.593841 83 7431ft 106kts
02-Mar-20 10:19 35.818618 -116.557317 83 7431ft 106kts
02-Mar-20 10:20 35.817355 -116.520850 83 7431ft 106kts
02-Mar-20 10:21 35.816084 -116.484428 83 7431ft 106kts
02-Mar-20 10:22 35.814797 -116.447960 83 7431ft 106kts
02-Mar-20 10:23 35.813514 -116.411547 83 7430ft 106kts
02-Mar-20 10:24 35.812190 -116.374996 83 7430ft 106kts
02-Mar-20 10:25 35.810872 -116.338526 84 7433ft 106kts
02-Mar-20 10:26 35.809541 -116.302005 84 7433ft 107kts
02-Mar-20 10:27 35.808189 -116.265258 84 7433ft 107kts
02-Mar-20 10:28 35.807316 -116.228797 79 7433ft 105kts
02-Mar-20 10:29 35.809495 -116.193236 79 7464ft 105kts
02-Mar-20 10:30 35.808973 -116.156436 83 7432ft 107kts
02-Mar-20 10:31 35.807658 -116.119902 84 7439ft 107kts
02-Mar-20 10:32 35.809572 -116.083868 72 7446ft 104kts
02-Mar-20 10:33 35.815616 -116.048878 72 7453ft 104kts
02-Mar-20 10:34 35.821959 -116.013918 72 7461ft 105kts
02-Mar-20 10:35 35.828634 -115.978716 72 7470ft 105kts
02-Mar-20 10:36 35.834234 -115.942967 84 7479ft 108kts
02-Mar-20 10:37 35.831195 -115.902997 93 6858ft 128kts
02-Mar-20 10:38 35.826077 -115.858534 92 5852ft 132kts
02-Mar-20 10:39 35.821443 -115.818905 90 5518ft 100kts
02-Mar-20 10:40 35.817765 -115.786043 88 5515ft 89kts
02-Mar-20 10:41 35.814467 -115.756835 87 5473ft 88kts
02-Mar-20 10:42 35.805501 -115.725240 111 4871ft 102kts
02-Mar-20 10:43 35.791827 -115.694927 104 4228ft 100kts
02-Mar-20 10:44 35.785761 -115.662319 98 3607ft 100kts
02-Mar-20 10:45 35.779960 -115.633398 45 3349ft 73kts
02-Mar-20 10:46 35.792828 -115.617176 49 3224ft 73kts
02-Mar-20 10:47 35.804155 -115.599711 2 3058ft 46kts
02-Mar-20 10:48 35.803703 -115.616968 247 2748ft 73kts
02-Mar-20 10:49 35.789036 -115.626370 95 2927ft 60kts
02-Mar-20 10:50 35.795808 -115.609353 37 3322ft 59kts
02-Mar-20 10:51 35.809194 -115.597734 344 3256ft 64kts
02-Mar-20 10:52 35.802474 -115.618508 237 2691ft 84kts
02-Mar-20 10:53 35.795271 -115.626436 140 2586ft 6kts
02-Mar-20 10:54 35.795095 -115.626494 273 2586ft 0kts
02-Mar-20 10:55 35.795095 -115.626494 273 2586ft 0kts
02-Mar-20 10:56 35.795095 -115.626494 273 2586ft 0kts

Navigation Log

Ident Type
Flight plan parsing failed, navigation log unavailable